createdAt,value
2022-09-22T00:00:28.060Z,10.55
2022-09-22T00:03:03.791Z,10.55
2022-09-22T00:05:32.764Z,10.60
2022-09-22T00:08:03.716Z,10.67
2022-09-22T00:10:34.955Z,10.69
2022-09-22T00:13:04.091Z,10.71
2022-09-22T00:15:32.781Z,10.66
2022-09-22T00:18:02.149Z,10.58
2022-09-22T00:20:36.030Z,10.51
2022-09-22T00:23:07.062Z,10.44
2022-09-22T00:25:40.331Z,10.29
2022-09-22T00:28:10.178Z,10.38
2022-09-22T00:30:42.444Z,10.45
2022-09-22T00:33:13.631Z,10.44
2022-09-22T00:35:44.606Z,10.38
2022-09-22T00:38:14.669Z,10.40
2022-09-22T00:40:45.897Z,9.62
2022-09-22T00:43:16.848Z,10.27
2022-09-22T00:45:50.210Z,10.25
2022-09-22T00:48:22.648Z,10.22
2022-09-22T00:50:55.649Z,10.16
2022-09-22T00:53:28.872Z,10.17
2022-09-22T00:56:04.350Z,10.09
2022-09-22T00:58:39.627Z,10.09
2022-09-22T01:01:10.896Z,10.06
2022-09-22T01:03:40.540Z,10.16
2022-09-22T01:06:19.908Z,10.08
2022-09-22T01:08:51.197Z,9.39
2022-09-22T01:11:21.325Z,10.01
2022-09-22T01:14:08.128Z,10.20
2022-09-22T01:16:49.898Z,10.15
2022-09-22T01:19:52.928Z,10.10
2022-09-22T01:22:41.023Z,10.16
2022-09-22T01:25:35.285Z,10.13
2022-09-22T01:28:26.635Z,10.10
2022-09-22T01:31:03.464Z,10.04
2022-09-22T01:33:40.812Z,9.98
2022-09-22T01:36:23.661Z,10.07
2022-09-22T01:39:02.672Z,10.00
2022-09-22T01:41:47.238Z,9.96
2022-09-22T01:44:22.914Z,9.92
2022-09-22T01:46:55.807Z,9.90
2022-09-22T01:49:31.113Z,9.88
2022-09-22T01:52:09.865Z,9.98
2022-09-22T01:54:55.425Z,10.17
2022-09-22T01:57:48.886Z,9.95
2022-09-22T02:00:21.074Z,10.00
2022-09-22T02:02:59.597Z,9.86
2022-09-22T02:05:35.232Z,9.60
2022-09-22T02:08:10.903Z,9.73
2022-09-22T02:10:45.764Z,9.64
2022-09-22T02:13:15.452Z,9.75
2022-09-22T02:16:04.157Z,9.77
2022-09-22T02:18:42.176Z,9.17
2022-09-22T02:21:12.620Z,9.55
2022-09-22T02:23:42.761Z,9.65
2022-09-22T02:26:15.349Z,9.54
2022-09-22T02:28:46.367Z,9.29
2022-09-22T02:31:20.296Z,9.47
2022-09-22T02:33:53.682Z,9.35
2022-09-22T02:36:38.984Z,9.43
2022-09-22T02:39:12.941Z,9.40
2022-09-22T02:41:55.208Z,9.36
2022-09-22T02:44:30.741Z,9.31
2022-09-22T02:47:07.485Z,9.18
2022-09-22T02:49:38.212Z,9.24
2022-09-22T02:52:10.854Z,9.25
2022-09-22T02:54:40.159Z,9.34
2022-09-22T02:57:10.694Z,9.43
2022-09-22T02:59:39.726Z,9.49
2022-09-22T03:02:08.869Z,9.52
2022-09-22T03:04:39.491Z,9.54
2022-09-22T03:07:08.921Z,9.66
2022-09-22T03:09:38.149Z,9.68
2022-09-22T03:12:07.822Z,9.66
2022-09-22T03:14:40.147Z,9.69
2022-09-22T03:17:09.122Z,9.56
2022-09-22T03:19:39.391Z,9.46
2022-09-22T03:22:10.697Z,9.25
2022-09-22T03:24:39.570Z,9.31
2022-09-22T03:27:09.232Z,9.35
2022-09-22T03:29:38.160Z,9.31
2022-09-22T03:32:08.971Z,9.31
2022-09-22T03:34:39.370Z,9.36
2022-09-22T03:37:08.765Z,9.38
2022-09-22T03:39:37.774Z,9.54
2022-09-22T03:42:11.570Z,9.61
2022-09-22T03:44:40.567Z,9.59
2022-09-22T03:47:11.729Z,9.55
2022-09-22T03:49:42.148Z,9.44
2022-09-22T03:52:11.027Z,9.54
2022-09-22T03:54:40.219Z,9.52
2022-09-22T03:57:09.224Z,9.36
2022-09-22T03:59:38.387Z,9.36
2022-09-22T04:02:07.321Z,9.31
2022-09-22T04:04:36.419Z,9.13
2022-09-22T04:07:07.687Z,9.18
2022-09-22T04:09:39.972Z,9.29
2022-09-22T04:12:09.912Z,9.20
2022-09-22T04:14:38.987Z,9.31
2022-09-22T04:17:10.490Z,9.31
2022-09-22T04:19:39.927Z,9.13
2022-09-22T04:22:16.111Z,9.15
2022-09-22T04:24:44.999Z,9.13
2022-09-22T04:27:19.928Z,9.08
2022-09-22T04:29:49.451Z,9.01
2022-09-22T04:32:21.195Z,8.98
2022-09-22T04:34:50.635Z,8.97
2022-09-22T04:37:21.233Z,8.99
2022-09-22T04:39:54.407Z,8.92
2022-09-22T04:42:23.666Z,8.88
2022-09-22T04:44:52.504Z,8.94
2022-09-22T04:47:21.241Z,8.83
2022-09-22T04:49:50.464Z,8.95
2022-09-22T04:52:21.017Z,8.91
2022-09-22T04:54:49.926Z,8.89
2022-09-22T04:57:20.575Z,8.87
2022-09-22T04:59:50.621Z,8.93
2022-09-22T05:02:19.599Z,8.92
2022-09-22T05:04:48.447Z,8.89
2022-09-22T05:07:17.342Z,9.06
2022-09-22T05:09:47.804Z,9.04
2022-09-22T05:12:17.519Z,8.95
2022-09-22T05:14:46.714Z,8.91
2022-09-22T05:17:15.589Z,8.92
2022-09-22T05:19:47.521Z,8.86
2022-09-22T05:22:16.214Z,8.77
2022-09-22T05:24:44.997Z,8.63
2022-09-22T05:27:15.631Z,8.63
2022-09-22T05:29:44.529Z,8.52
2022-09-22T07:29:54.345Z,10.14
2022-09-22T07:32:28.197Z,10.50
2022-09-22T07:35:00.164Z,10.53
2022-09-22T07:37:33.133Z,10.68
2022-09-22T07:40:04.383Z,11.06
2022-09-22T07:42:33.564Z,11.07
2022-09-22T07:45:15.454Z,11.26
2022-09-22T07:48:03.217Z,11.47
2022-09-22T07:50:32.669Z,11.64
2022-09-22T07:53:04.084Z,11.85
2022-09-22T07:55:43.442Z,12.02
2022-09-22T07:58:17.389Z,12.23
2022-09-22T08:01:07.797Z,12.34
2022-09-22T08:03:38.183Z,12.72
2022-09-22T08:06:11.536Z,12.84
2022-09-22T08:09:24.948Z,12.99
2022-09-22T08:11:58.673Z,13.11
2022-09-22T08:14:31.150Z,13.15
2022-09-22T08:17:12.229Z,13.59
2022-09-22T08:19:45.911Z,13.67
2022-09-22T08:22:15.490Z,13.21
2022-09-22T08:24:46.053Z,13.98
2022-09-22T08:27:19.093Z,14.19
2022-09-22T08:29:49.009Z,14.30
2022-09-22T08:32:24.679Z,13.62
2022-09-22T08:34:58.035Z,14.29
2022-09-22T08:37:28.592Z,14.59
2022-09-22T08:40:00.434Z,14.85
2022-09-22T08:42:31.560Z,14.95
2022-09-22T08:45:07.140Z,15.29
2022-09-22T08:48:02.189Z,15.52
2022-09-22T08:50:55.948Z,15.62
2022-09-22T08:53:27.241Z,15.77
2022-09-22T08:56:07.787Z,15.94
2022-09-22T08:58:44.769Z,16.13
2022-09-22T09:01:26.697Z,16.39
2022-09-22T09:04:11.295Z,16.41
2022-09-22T09:06:48.387Z,16.92
2022-09-22T09:09:32.762Z,16.90
2022-09-22T09:12:12.352Z,16.83
2022-09-22T09:15:07.376Z,17.17
2022-09-22T09:17:40.141Z,17.04
2022-09-22T09:20:21.763Z,17.18
2022-09-22T09:22:56.157Z,17.40
2022-09-22T09:25:35.980Z,17.41
2022-09-22T09:28:10.561Z,17.78
2022-09-22T09:30:45.550Z,17.67
2022-09-22T09:33:27.592Z,17.82
2022-09-22T09:36:03.762Z,18.03
2022-09-22T09:38:36.904Z,18.14
2022-09-22T09:41:14.711Z,18.27
2022-09-22T09:43:45.755Z,18.22
2022-09-22T09:46:26.798Z,18.25
2022-09-22T09:49:06.636Z,18.38
2022-09-22T09:51:40.418Z,18.48
2022-09-22T09:54:16.959Z,18.49
2022-09-22T09:57:11.024Z,18.57
2022-09-22T09:59:59.681Z,18.86
2022-09-22T10:02:31.297Z,18.60
2022-09-22T10:05:03.072Z,17.46
2022-09-22T10:07:41.957Z,18.77
2022-09-22T10:10:34.519Z,19.06
2022-09-22T10:13:33.057Z,18.95
2022-09-22T10:16:22.391Z,18.99
2022-09-22T10:18:52.614Z,19.40
2022-09-22T10:21:23.198Z,19.35
2022-09-22T10:23:55.233Z,19.32
2022-09-22T10:26:26.640Z,19.28
2022-09-22T10:29:19.068Z,19.69
2022-09-22T10:32:13.300Z,19.73
2022-09-22T10:37:18.836Z,19.86
2022-09-22T10:42:37.415Z,19.78
2022-09-22T10:45:13.814Z,19.87
2022-09-22T10:47:57.517Z,19.66
2022-09-22T10:50:45.908Z,19.71
2022-09-22T10:53:33.298Z,19.90
2022-09-22T10:56:13.041Z,20.00
2022-09-22T10:59:16.226Z,20.06
2022-09-22T11:01:57.150Z,20.41
2022-09-22T11:04:47.272Z,20.36
2022-09-22T11:07:50.774Z,20.19
2022-09-22T11:10:49.324Z,20.31
2022-09-22T11:13:31.412Z,20.42
2022-09-22T11:16:27.736Z,20.76
2022-09-22T11:19:33.488Z,20.40
2022-09-22T11:22:18.675Z,20.41
2022-09-22T11:25:00.881Z,20.49
2022-09-22T11:27:45.308Z,20.33
2022-09-22T11:30:21.631Z,20.45
2022-09-22T11:33:07.940Z,20.47
2022-09-22T11:35:51.624Z,20.54
2022-09-22T11:38:35.018Z,20.18
2022-09-22T11:41:26.221Z,20.90
2022-09-22T11:44:14.869Z,20.80
2022-09-22T11:47:01.018Z,20.70
2022-09-22T11:49:46.416Z,20.93
2022-09-22T11:52:28.364Z,21.00
2022-09-22T11:55:15.560Z,20.96
2022-09-22T11:57:49.839Z,20.90
2022-09-22T12:00:21.193Z,20.68
2022-09-22T12:03:02.074Z,20.85
2022-09-22T12:05:41.642Z,20.88
2022-09-22T12:08:17.518Z,20.90
2022-09-22T12:10:47.687Z,20.86
2022-09-22T12:13:21.411Z,20.76
2022-09-22T12:18:44.892Z,21.00
2022-09-22T12:21:34.225Z,20.90
2022-09-22T12:24:05.420Z,20.79
2022-09-22T12:26:37.098Z,20.81
2022-09-22T12:29:19.754Z,20.91
2022-09-22T12:31:50.641Z,21.08
2022-09-22T12:34:25.272Z,21.05
2022-09-22T12:37:18.046Z,20.92
2022-09-22T12:39:52.404Z,20.94
2022-09-22T12:42:34.503Z,20.69
2022-09-22T12:45:10.998Z,20.49
2022-09-22T12:47:51.451Z,20.66
2022-09-22T12:50:42.241Z,20.38
2022-09-22T12:53:26.173Z,20.27
2022-09-22T12:55:56.901Z,20.21
2022-09-22T12:58:45.862Z,20.27
2022-09-22T13:01:32.790Z,20.24
2022-09-22T13:04:28.782Z,20.30
2022-09-22T13:07:02.629Z,20.36
2022-09-22T13:09:41.897Z,20.34
2022-09-22T13:12:28.203Z,20.31
2022-09-22T13:15:18.559Z,20.07
2022-09-22T13:17:49.440Z,20.11
2022-09-22T13:20:26.793Z,19.96
2022-09-22T13:23:29.624Z,19.85
2022-09-22T13:26:07.813Z,19.71
2022-09-22T13:28:47.073Z,19.81
2022-09-22T13:31:25.492Z,19.92
2022-09-22T13:33:54.764Z,19.31
2022-09-22T13:36:28.894Z,20.08
2022-09-22T13:39:18.453Z,19.96
2022-09-22T13:41:51.473Z,19.61
2022-09-22T13:44:29.719Z,19.57
2022-09-22T13:47:07.219Z,19.69
2022-09-22T13:49:41.074Z,19.47
2022-09-22T13:52:21.550Z,19.44
2022-09-22T13:55:08.132Z,19.69
2022-09-22T13:57:39.130Z,19.98
2022-09-22T14:00:24.528Z,19.68
2022-09-22T14:02:54.527Z,19.60
2022-09-22T14:05:30.054Z,19.63
2022-09-22T14:08:12.029Z,19.73
2022-09-22T14:10:49.897Z,19.77
2022-09-22T14:13:39.559Z,19.74
2022-09-22T14:16:29.165Z,19.62
2022-09-22T14:19:05.353Z,19.59
2022-09-22T14:21:46.672Z,19.83
2022-09-22T14:24:21.012Z,19.85
2022-09-22T14:27:00.219Z,20.27
2022-09-22T14:29:39.879Z,19.89
2022-09-22T14:32:18.092Z,19.95
2022-09-22T14:34:49.790Z,19.58
2022-09-22T14:37:27.456Z,19.56
2022-09-22T14:40:02.187Z,19.69
2022-09-22T14:42:36.183Z,20.00
2022-09-22T14:45:21.075Z,19.56
2022-09-22T14:48:27.756Z,19.52
2022-09-22T14:51:05.628Z,19.32
2022-09-22T14:53:54.219Z,19.28
2022-09-22T14:56:27.847Z,19.00
2022-09-22T14:59:00.856Z,19.08
2022-09-22T15:01:50.750Z,18.86
2022-09-22T15:04:26.344Z,18.61
2022-09-22T15:07:00.736Z,18.74
2022-09-22T15:09:33.679Z,18.99
2022-09-22T15:12:07.733Z,19.05
2022-09-22T15:14:45.771Z,18.76
2022-09-22T15:17:58.370Z,18.60
2022-09-22T15:20:35.066Z,18.56
2022-09-22T15:23:05.840Z,18.59
2022-09-22T15:25:34.754Z,18.43
2022-09-22T15:28:11.328Z,18.57
2022-09-22T15:30:42.628Z,18.55
2022-09-22T15:33:15.853Z,18.47
2022-09-22T15:35:48.446Z,18.28
2022-09-22T15:38:21.221Z,18.14
2022-09-22T15:40:52.051Z,18.21
2022-09-22T15:43:24.775Z,18.09
2022-09-22T15:45:59.862Z,18.17
2022-09-22T15:48:32.246Z,18.19
2022-09-22T15:51:04.867Z,18.49
2022-09-22T15:53:37.827Z,18.49
2022-09-22T15:56:08.809Z,18.37
2022-09-22T15:58:40.768Z,18.30
2022-09-22T16:01:11.718Z,18.24
2022-09-22T16:03:43.840Z,18.01
2022-09-22T16:06:15.256Z,18.06
2022-09-22T16:08:48.254Z,17.87
2022-09-22T16:11:23.315Z,17.81
2022-09-22T16:13:52.238Z,16.89
2022-09-22T16:16:25.126Z,17.73
2022-09-22T16:18:57.044Z,17.82
2022-09-22T16:21:31.017Z,17.69
2022-09-22T16:24:08.642Z,17.69
2022-09-22T16:26:39.206Z,17.56
2022-09-22T16:29:11.447Z,17.41
2022-09-22T16:31:42.601Z,17.37
2022-09-22T16:34:13.026Z,17.18
2022-09-22T16:36:43.341Z,17.33
2022-09-22T16:39:13.043Z,17.13
2022-09-22T16:41:46.663Z,17.11
2022-09-22T16:44:16.247Z,17.11
2022-09-22T16:46:49.719Z,17.09
2022-09-22T16:49:20.435Z,17.27
2022-09-22T16:51:50.631Z,17.13
2022-09-22T16:54:19.949Z,16.89
2022-09-22T16:56:50.710Z,16.90
2022-09-22T16:59:22.632Z,16.86
2022-09-22T17:01:56.507Z,16.90
2022-09-22T17:04:28.498Z,16.06
2022-09-22T17:06:59.297Z,17.11
2022-09-22T17:09:28.461Z,16.95
2022-09-22T17:12:08.402Z,16.84
2022-09-22T17:14:43.656Z,16.68
2022-09-22T17:17:16.306Z,16.73
2022-09-22T17:19:49.326Z,16.83
2022-09-22T17:22:22.330Z,16.73
2022-09-22T17:24:54.988Z,16.52
2022-09-22T17:27:25.547Z,16.50
2022-09-22T17:29:59.174Z,16.38
2022-09-22T17:32:30.295Z,16.26
2022-09-22T17:35:01.991Z,16.08
2022-09-22T17:37:30.826Z,16.04
2022-09-22T17:40:00.722Z,15.97
2022-09-22T17:42:38.930Z,15.77
2022-09-22T17:45:10.404Z,15.98
2022-09-22T17:47:58.657Z,15.85
2022-09-22T17:50:47.711Z,15.95
2022-09-22T17:53:42.370Z,15.74
2022-09-22T17:56:13.796Z,15.71
2022-09-22T17:58:43.896Z,15.69
2022-09-22T18:01:15.852Z,15.52
2022-09-22T18:03:51.819Z,15.47
2022-09-22T18:06:24.770Z,15.49
2022-09-22T18:09:05.205Z,15.44
2022-09-22T18:11:34.325Z,15.46
2022-09-22T18:14:06.857Z,15.24
2022-09-22T18:16:37.517Z,15.25
2022-09-22T18:19:14.205Z,15.11
2022-09-22T18:21:45.399Z,15.23
2022-09-22T18:24:19.589Z,15.16
2022-09-22T18:26:49.036Z,15.07
2022-09-22T18:29:23.095Z,15.08
2022-09-22T18:32:03.267Z,15.15
2022-09-22T18:34:56.996Z,15.02
2022-09-22T18:37:30.116Z,14.89
2022-09-22T18:40:03.423Z,14.16
2022-09-22T18:42:36.816Z,14.60
2022-09-22T18:45:06.081Z,14.60
2022-09-22T18:47:43.858Z,14.69
2022-09-22T18:50:18.256Z,14.69
2022-09-22T18:52:54.263Z,14.68
2022-09-22T18:55:23.693Z,14.71
2022-09-22T18:57:54.142Z,14.65
2022-09-22T19:00:23.307Z,14.74
2022-09-22T19:02:52.584Z,14.78
2022-09-22T19:05:23.655Z,14.67
2022-09-22T19:07:56.260Z,14.66
2022-09-22T19:10:25.959Z,14.72
2022-09-22T19:12:57.696Z,14.57
2022-09-22T19:15:26.629Z,14.46
2022-09-22T19:17:57.578Z,14.34
2022-09-22T19:20:29.775Z,14.31
2022-09-22T19:23:00.766Z,14.33
2022-09-22T19:25:30.378Z,14.19
2022-09-22T19:28:02.945Z,13.83
2022-09-22T19:30:35.517Z,13.94
2022-09-22T19:33:04.897Z,14.05
2022-09-22T19:35:39.436Z,14.10
2022-09-22T19:38:08.734Z,14.03
2022-09-22T19:40:40.005Z,13.97
2022-09-22T19:43:09.773Z,14.01
2022-09-22T19:45:38.680Z,13.84
2022-09-22T19:48:16.322Z,14.00
2022-09-22T19:50:46.967Z,13.85
2022-09-22T19:53:18.858Z,13.81
2022-09-22T19:55:47.655Z,13.76
2022-09-22T19:58:16.803Z,13.61
2022-09-22T20:00:47.261Z,12.93
2022-09-22T20:03:22.042Z,13.76
2022-09-22T20:05:59.159Z,13.74
2022-09-22T20:08:28.090Z,13.76
2022-09-22T20:11:16.358Z,13.86
2022-09-22T20:14:03.346Z,13.94
2022-09-22T20:16:32.262Z,14.05
2022-09-22T20:19:01.731Z,13.32
2022-09-22T20:21:35.634Z,13.94
2022-09-22T20:24:05.260Z,13.85
2022-09-22T20:26:34.126Z,13.80
2022-09-22T20:29:04.266Z,13.70
2022-09-22T20:31:33.974Z,13.67
2022-09-22T20:34:05.692Z,13.63
2022-09-22T20:36:37.503Z,13.65
2022-09-22T20:39:15.895Z,13.75
2022-09-22T20:41:44.960Z,13.73
2022-09-22T20:44:19.654Z,13.85
2022-09-22T20:46:50.062Z,13.75
2022-09-22T20:49:25.370Z,13.54
2022-09-22T20:51:59.590Z,13.50
2022-09-22T20:54:28.283Z,13.42
2022-09-22T20:56:59.060Z,13.59
2022-09-22T20:59:33.955Z,13.55
2022-09-22T21:02:09.175Z,13.40
2022-09-22T21:04:41.103Z,13.52
2022-09-22T21:07:11.390Z,13.59
2022-09-22T21:09:58.089Z,13.40
2022-09-22T21:12:31.632Z,13.38
2022-09-22T21:15:02.674Z,13.40
2022-09-22T21:17:32.844Z,13.22
2022-09-22T21:20:04.499Z,13.16
2022-09-22T21:22:35.166Z,13.13
2022-09-22T21:25:05.004Z,13.25
2022-09-22T21:27:33.701Z,13.23
2022-09-22T21:30:02.705Z,13.18
2022-09-22T21:32:31.448Z,13.23
2022-09-22T21:35:02.943Z,13.30
2022-09-22T21:37:32.065Z,13.12
2022-09-22T21:40:03.394Z,13.14
2022-09-22T21:42:32.479Z,13.06
2022-09-22T21:45:07.402Z,12.92
2022-09-22T21:47:38.522Z,13.00
2022-09-22T21:50:08.717Z,12.87
2022-09-22T21:52:38.547Z,12.84
2022-09-22T21:55:09.921Z,12.86
2022-09-22T21:57:38.537Z,12.97
2022-09-22T22:00:10.363Z,12.48
2022-09-22T22:02:56.013Z,12.69
2022-09-22T22:05:25.896Z,12.76
2022-09-22T22:07:55.820Z,12.66
2022-09-22T22:10:28.744Z,12.79
2022-09-22T22:12:59.553Z,12.76
2022-09-22T22:15:28.910Z,12.80
2022-09-22T22:17:57.931Z,12.61
2022-09-22T22:20:26.688Z,12.70
2022-09-22T22:22:57.239Z,12.74
2022-09-22T22:25:28.046Z,12.69
2022-09-22T22:27:56.797Z,12.73
2022-09-22T22:30:27.165Z,12.80
2022-09-22T22:32:56.043Z,12.67
2022-09-22T22:35:24.825Z,12.57
2022-09-22T22:37:56.139Z,12.54
2022-09-22T22:40:26.206Z,11.89
2022-09-22T22:42:56.942Z,12.54
2022-09-22T22:45:26.004Z,12.43
2022-09-22T22:47:55.189Z,12.32
2022-09-22T22:50:25.877Z,12.50
2022-09-22T22:52:54.900Z,12.34
2022-09-22T22:55:24.010Z,12.36
2022-09-22T22:57:53.544Z,12.36
2022-09-22T23:00:29.597Z,12.29
2022-09-22T23:03:01.656Z,12.43
2022-09-22T23:05:30.736Z,12.54
2022-09-22T23:07:59.960Z,12.32
2022-09-22T23:10:28.903Z,12.12
2022-09-22T23:13:01.255Z,12.22
2022-09-22T23:15:31.690Z,12.20
2022-09-22T23:18:00.946Z,12.21
2022-09-22T23:20:33.008Z,11.95
2022-09-22T23:23:04.012Z,12.18
2022-09-22T23:25:34.712Z,11.95
2022-09-22T23:28:06.322Z,11.95
2022-09-22T23:30:37.576Z,12.22
2022-09-22T23:33:07.552Z,12.18
2022-09-22T23:35:36.950Z,11.59
2022-09-22T23:38:08.787Z,12.11
2022-09-22T23:40:38.569Z,12.19
2022-09-22T23:43:08.897Z,12.17
2022-09-22T23:45:39.226Z,12.13
2022-09-22T23:48:08.937Z,11.93
2022-09-22T23:50:42.365Z,12.08
2022-09-22T23:53:13.535Z,12.06
2022-09-22T23:55:50.302Z,12.08
2022-09-22T23:58:21.909Z,12.22
